createdAt,value
2018-06-02T00:00:14.552Z,14.33
2018-06-02T00:02:42.899Z,16.13
2018-06-02T00:05:11.280Z,15.13
2018-06-02T00:07:39.708Z,15.53
2018-06-02T00:10:08.836Z,12.10
2018-06-02T00:12:37.259Z,13.10
2018-06-02T00:15:05.658Z,13.53
2018-06-02T00:17:34.850Z,13.70
2018-06-02T00:20:03.264Z,12.80
2018-06-02T00:22:31.678Z,13.60
2018-06-02T00:24:59.968Z,12.13
2018-06-02T00:27:28.356Z,11.63
2018-06-02T00:29:56.809Z,9.67
2018-06-02T00:32:25.163Z,8.87
2018-06-02T00:34:54.265Z,8.60
2018-06-02T00:37:22.570Z,9.10
2018-06-02T00:39:50.873Z,9.30
2018-06-02T00:42:19.302Z,9.43
2018-06-02T00:44:47.658Z,8.80
2018-06-02T00:47:16.768Z,8.50
2018-06-02T00:49:45.071Z,7.80
2018-06-02T00:52:13.373Z,8.97
2018-06-02T00:54:53.608Z,9.93
2018-06-02T00:57:21.933Z,9.20
2018-06-02T00:59:51.105Z,8.10
2018-06-02T01:02:19.440Z,7.80
2018-06-02T01:04:47.817Z,7.90
2018-06-02T01:07:16.303Z,8.57
2018-06-02T01:09:44.621Z,7.40
2018-06-02T01:12:13.008Z,6.80
2018-06-02T01:14:41.337Z,8.63
2018-06-02T01:17:09.781Z,6.90
2018-06-02T01:19:38.078Z,7.07
2018-06-02T01:22:06.451Z,8.30
2018-06-02T01:24:35.534Z,7.00
2018-06-02T01:27:04.119Z,7.20
2018-06-02T01:29:32.429Z,6.17
2018-06-02T01:32:01.523Z,6.07
2018-06-02T01:34:30.582Z,6.77
2018-06-02T01:36:58.965Z,6.10
2018-06-02T01:39:27.362Z,5.70
2018-06-02T01:41:56.476Z,6.10
2018-06-02T01:44:25.572Z,5.40
2018-06-02T01:46:54.711Z,5.00
2018-06-02T01:49:23.014Z,4.57
2018-06-02T01:51:51.329Z,3.50
2018-06-02T01:54:19.818Z,3.20
2018-06-02T01:56:48.345Z,3.10
2018-06-02T01:59:16.756Z,2.57
2018-06-02T02:01:45.859Z,2.40
2018-06-02T02:04:14.962Z,2.80
2018-06-02T02:06:44.141Z,2.73
2018-06-02T02:09:12.669Z,2.50
2018-06-02T02:11:41.030Z,1.80
2018-06-02T02:14:09.408Z,1.80
2018-06-02T02:16:37.816Z,2.50
2018-06-02T02:19:06.142Z,1.80
2018-06-02T02:21:34.436Z,1.80
2018-06-02T02:24:03.656Z,1.83
2018-06-02T02:26:32.093Z,1.47
2018-06-02T02:29:00.437Z,1.47
2018-06-02T02:31:28.808Z,1.50
2018-06-02T02:33:57.153Z,1.63
2018-06-02T02:36:26.309Z,1.80
2018-06-02T02:38:54.785Z,1.43
2018-06-02T02:41:23.190Z,2.13
2018-06-02T02:43:51.521Z,1.90
2018-06-02T02:46:19.879Z,1.83
2018-06-02T02:48:48.963Z,2.10
2018-06-02T02:51:17.436Z,2.37
2018-06-02T02:53:46.607Z,3.40
2018-06-02T02:56:14.957Z,3.70
2018-06-02T02:58:43.432Z,3.40
2018-06-02T03:01:11.877Z,4.13
2018-06-02T03:03:40.959Z,4.03
2018-06-02T03:06:09.413Z,3.60
2018-06-02T03:08:37.743Z,4.53
2018-06-02T03:11:06.849Z,4.70
2018-06-02T03:13:35.973Z,4.37
2018-06-02T03:16:04.300Z,5.73
2018-06-02T03:18:32.792Z,5.33
2018-06-02T03:21:01.896Z,5.90
2018-06-02T03:23:31.017Z,5.97
2018-06-02T03:25:59.396Z,6.93
2018-06-02T03:28:27.826Z,5.43
2018-06-02T03:30:56.140Z,5.90
2018-06-02T03:33:24.429Z,5.77
2018-06-02T03:35:52.897Z,5.93
2018-06-02T03:38:21.989Z,4.63
2018-06-02T03:40:50.308Z,5.17
2018-06-02T03:43:18.648Z,5.83
2018-06-02T03:45:47.018Z,5.60
2018-06-02T03:48:16.170Z,5.57
2018-06-02T03:50:44.516Z,6.47
2018-06-02T03:53:12.866Z,5.10
2018-06-02T03:55:41.991Z,5.63
2018-06-02T03:58:11.077Z,5.30
2018-06-02T04:00:39.368Z,5.17
2018-06-02T04:03:07.787Z,5.87
2018-06-02T04:05:36.162Z,6.50
2018-06-02T04:08:04.485Z,7.10
2018-06-02T04:10:33.656Z,9.30
2018-06-02T04:13:01.965Z,10.20
2018-06-02T04:15:30.314Z,11.90
2018-06-02T04:17:58.738Z,11.57
2018-06-02T04:20:27.088Z,13.80
2018-06-02T04:22:56.207Z,14.43
2018-06-02T04:25:24.578Z,14.37
2018-06-02T04:27:52.871Z,14.17
2018-06-02T04:30:21.207Z,14.67
2018-06-02T04:32:49.546Z,14.93
2018-06-02T04:35:17.981Z,13.20
2018-06-02T04:37:47.097Z,13.50
2018-06-02T04:40:15.440Z,12.90
2018-06-02T04:42:43.841Z,14.50
2018-06-02T04:45:13.034Z,15.87
2018-06-02T04:47:42.205Z,15.77
2018-06-02T04:50:10.558Z,16.20
2018-06-02T04:52:38.921Z,18.17
2018-06-02T04:55:07.273Z,18.27
2018-06-02T04:57:36.330Z,19.60
2018-06-02T05:00:04.695Z,18.27
2018-06-02T05:02:33.043Z,19.37
2018-06-02T05:05:01.423Z,18.23
2018-06-02T05:07:29.759Z,21.77
2018-06-02T05:09:58.114Z,20.90
2018-06-02T05:12:26.418Z,20.50
2018-06-02T05:14:54.775Z,21.50
2018-06-02T05:17:23.148Z,20.50
2018-06-02T05:19:51.483Z,21.77
2018-06-02T05:22:20.620Z,22.53
2018-06-02T05:24:48.995Z,23.50
2018-06-02T05:27:17.449Z,21.47
2018-06-02T05:29:45.887Z,20.10
2018-06-02T05:32:14.259Z,20.90
2018-06-02T05:34:42.645Z,18.70
2018-06-02T05:37:11.099Z,19.20
2018-06-02T05:39:39.443Z,18.47
2018-06-02T05:42:07.739Z,16.93
2018-06-02T05:44:36.169Z,19.70
2018-06-02T05:47:04.587Z,19.47
2018-06-02T05:49:32.940Z,15.90
2018-06-02T05:52:02.118Z,18.63
2018-06-02T05:54:30.421Z,18.60
2018-06-02T05:56:59.505Z,18.73
2018-06-02T05:59:27.946Z,19.90
2018-06-02T06:01:56.305Z,16.53
2018-06-02T06:04:24.747Z,15.93
2018-06-02T06:06:53.102Z,17.20
2018-06-02T06:09:21.422Z,16.60
2018-06-02T06:11:50.578Z,17.33
2018-06-02T06:14:18.926Z,18.00
2018-06-02T06:16:47.675Z,19.10
2018-06-02T06:19:16.861Z,17.77
2018-06-02T06:21:45.264Z,17.93
2018-06-02T06:24:14.408Z,16.70
2018-06-02T06:26:43.608Z,18.47
2018-06-02T06:29:11.999Z,17.90
2018-06-02T06:31:40.435Z,18.10
2018-06-02T06:34:08.784Z,18.43
2018-06-02T06:36:37.946Z,17.47
2018-06-02T06:39:07.117Z,17.80
2018-06-02T06:41:35.623Z,16.00
2018-06-02T06:44:04.078Z,16.77
2018-06-02T06:46:33.158Z,16.37
2018-06-02T06:49:02.385Z,14.80
2018-06-02T06:51:31.483Z,14.60
2018-06-02T06:53:59.780Z,14.43
2018-06-02T06:56:28.176Z,15.70
2018-06-02T06:58:56.473Z,11.93
2018-06-02T07:01:24.794Z,12.87
2018-06-02T07:03:53.090Z,12.63
2018-06-02T07:06:22.361Z,12.97
2018-06-02T07:08:51.475Z,13.10
2018-06-02T07:11:19.932Z,12.73
2018-06-02T07:13:49.080Z,11.67
2018-06-02T07:16:17.457Z,12.20
2018-06-02T07:18:45.786Z,12.03
2018-06-02T07:21:14.868Z,12.63
2018-06-02T07:23:43.948Z,12.30
2018-06-02T07:26:12.380Z,13.87
2018-06-02T07:28:41.689Z,13.00
2018-06-02T07:31:10.115Z,11.13
2018-06-02T07:33:39.239Z,11.53
2018-06-02T07:36:07.629Z,13.67
2018-06-02T07:38:36.023Z,12.93
2018-06-02T07:41:04.337Z,12.07
2018-06-02T07:43:32.657Z,13.30
2018-06-02T07:46:00.984Z,10.70
2018-06-02T07:48:29.300Z,11.40
2018-06-02T07:50:58.430Z,12.07
2018-06-02T07:53:26.754Z,12.07
2018-06-02T07:55:55.894Z,11.83
2018-06-02T07:58:24.296Z,12.73
2018-06-02T08:00:52.753Z,11.23
2018-06-02T08:03:21.176Z,12.33
2018-06-02T08:05:49.710Z,10.50
2018-06-02T08:08:18.062Z,10.27
2018-06-02T08:10:47.167Z,10.60
2018-06-02T08:13:16.751Z,9.23
2018-06-02T08:15:45.235Z,9.60
2018-06-02T08:18:14.498Z,11.03
2018-06-02T08:20:44.069Z,10.00
2018-06-02T08:23:13.775Z,11.40
2018-06-02T08:25:43.173Z,10.53
2018-06-02T08:28:11.688Z,12.07
2018-06-02T08:30:41.226Z,11.37
2018-06-02T08:33:09.573Z,12.53
2018-06-02T08:35:38.943Z,11.90
2018-06-02T08:38:08.062Z,11.53
2018-06-02T08:40:36.356Z,11.40
2018-06-02T08:43:04.700Z,11.60
2018-06-02T08:45:33.801Z,14.30
2018-06-02T08:48:02.879Z,13.50
2018-06-02T08:50:31.947Z,12.83
2018-06-02T08:53:00.276Z,12.77
2018-06-02T08:55:28.835Z,14.60
2018-06-02T08:57:57.227Z,13.67
2018-06-02T09:00:25.578Z,15.53
2018-06-02T09:02:54.739Z,15.93
2018-06-02T09:05:23.052Z,15.60
2018-06-02T09:07:52.338Z,15.50
2018-06-02T09:10:20.796Z,15.43
2018-06-02T09:12:49.149Z,15.17
2018-06-02T09:15:18.236Z,15.70
2018-06-02T09:17:46.563Z,14.00
2018-06-02T09:20:15.690Z,14.93
2018-06-02T09:22:44.072Z,15.27
2018-06-02T09:25:12.502Z,15.03
2018-06-02T09:27:40.905Z,16.30
2018-06-02T09:30:10.001Z,15.53
2018-06-02T09:32:39.205Z,16.00
2018-06-02T09:35:08.359Z,15.97
2018-06-02T09:37:36.791Z,17.50
2018-06-02T09:40:05.225Z,17.70
2018-06-02T09:42:34.311Z,17.20
2018-06-02T09:45:02.649Z,19.30
2018-06-02T09:47:31.722Z,18.00
2018-06-02T09:50:00.885Z,16.60
2018-06-02T09:52:29.238Z,17.83
2018-06-02T09:54:57.820Z,17.70
2018-06-02T09:57:26.163Z,19.67
2018-06-02T09:59:55.355Z,17.93
2018-06-02T10:02:24.436Z,17.83
2018-06-02T10:04:52.823Z,18.70
2018-06-02T10:07:21.999Z,19.87
2018-06-02T10:09:51.216Z,16.97
2018-06-02T10:12:20.381Z,19.60
2018-06-02T10:14:48.765Z,18.67
2018-06-02T10:17:17.093Z,19.50
2018-06-02T10:19:45.518Z,19.70
2018-06-02T10:22:13.866Z,19.60
2018-06-02T10:24:42.241Z,21.83
2018-06-02T10:27:10.604Z,20.37
2018-06-02T10:29:39.942Z,18.37
2018-06-02T10:32:09.155Z,21.23
2018-06-02T10:34:37.512Z,21.10
2018-06-02T10:37:06.631Z,19.80
2018-06-02T10:39:35.956Z,19.93
2018-06-02T10:42:04.318Z,18.13
2018-06-02T10:44:32.623Z,18.87
2018-06-02T10:47:01.083Z,14.93
2018-06-02T10:49:29.671Z,17.83
2018-06-02T10:51:58.054Z,17.13
2018-06-02T10:54:27.210Z,14.13
2018-06-02T10:56:55.620Z,14.40
2018-06-02T10:59:23.960Z,16.23
2018-06-02T11:01:52.352Z,13.60
2018-06-02T11:04:20.841Z,15.00
2018-06-02T11:06:49.216Z,15.87
2018-06-02T11:09:17.577Z,15.17
2018-06-02T11:11:45.997Z,14.60
2018-06-02T11:14:14.319Z,14.73
2018-06-02T11:16:42.796Z,14.43
2018-06-02T11:19:11.170Z,14.87
2018-06-02T11:21:40.330Z,12.37
2018-06-02T11:24:08.679Z,12.57
2018-06-02T11:26:37.009Z,13.03
2018-06-02T11:29:06.141Z,13.43
2018-06-02T11:31:34.525Z,13.37
2018-06-02T11:34:02.913Z,13.50
2018-06-02T11:36:31.248Z,13.83
2018-06-02T11:38:59.607Z,14.37
2018-06-02T11:41:28.693Z,11.87
2018-06-02T11:43:57.782Z,12.97
2018-06-02T11:46:27.011Z,12.70
2018-06-02T11:48:55.389Z,12.67
2018-06-02T11:51:24.531Z,13.00
2018-06-02T11:53:52.941Z,12.37
2018-06-02T11:56:22.076Z,13.00
2018-06-02T11:58:50.596Z,12.87
2018-06-02T12:01:19.021Z,13.60
2018-06-02T12:03:47.461Z,13.43
2018-06-02T12:06:15.841Z,12.73
2018-06-02T12:08:44.272Z,14.10
2018-06-02T12:11:12.740Z,11.43
2018-06-02T12:13:41.904Z,12.93
2018-06-02T12:16:10.319Z,12.30
2018-06-02T12:18:39.527Z,12.73
2018-06-02T12:21:07.922Z,8.50
2018-06-02T12:23:36.302Z,10.87
2018-06-02T12:26:04.665Z,10.03
2018-06-02T12:28:33.113Z,9.60
2018-06-02T12:31:02.398Z,10.30
2018-06-02T12:33:30.835Z,10.13
2018-06-02T12:35:59.254Z,10.53
2018-06-02T12:38:27.587Z,11.10
2018-06-02T12:40:55.992Z,10.40
2018-06-02T12:43:24.350Z,9.80
2018-06-02T12:45:52.733Z,8.83
2018-06-02T12:48:21.213Z,9.17
2018-06-02T12:50:49.609Z,11.40
2018-06-02T12:53:18.215Z,11.50
2018-06-02T12:55:46.609Z,9.93
2018-06-02T12:58:15.862Z,12.10
2018-06-02T13:00:44.413Z,10.77
2018-06-02T13:03:12.822Z,10.67
2018-06-02T13:05:42.956Z,11.10
2018-06-02T13:08:12.078Z,10.80
2018-06-02T13:10:41.260Z,10.50
2018-06-02T13:13:09.625Z,10.80
2018-06-02T13:15:38.065Z,11.83
2018-06-02T13:18:06.545Z,11.60
2018-06-02T13:20:35.669Z,11.60
2018-06-02T13:23:04.018Z,12.93
2018-06-02T13:25:32.369Z,11.90
2018-06-02T13:28:01.538Z,12.60
2018-06-02T13:30:29.941Z,13.13
2018-06-02T13:32:59.097Z,13.30
2018-06-02T13:35:27.449Z,13.47
2018-06-02T13:37:55.924Z,13.13
2018-06-02T13:40:24.341Z,13.37
2018-06-02T13:42:52.707Z,12.77
2018-06-02T13:45:21.836Z,12.00
2018-06-02T13:47:50.282Z,12.23
2018-06-02T13:50:18.707Z,11.10
2018-06-02T13:52:48.609Z,12.87
2018-06-02T13:55:17.064Z,11.53
2018-06-02T13:57:45.436Z,13.00
2018-06-02T14:00:15.257Z,12.47
2018-06-02T14:02:43.640Z,12.40
2018-06-02T14:05:12.003Z,12.37
2018-06-02T14:07:40.357Z,11.90
2018-06-02T14:10:08.761Z,12.57
2018-06-02T14:12:37.123Z,11.50
2018-06-02T14:15:05.512Z,12.20
2018-06-02T14:17:33.862Z,11.70
2018-06-02T14:20:02.560Z,13.50
2018-06-02T14:22:30.956Z,11.90
2018-06-02T14:24:59.384Z,11.90
2018-06-02T14:27:27.764Z,11.20
2018-06-02T14:29:56.913Z,12.10
2018-06-02T14:32:25.269Z,11.50
2018-06-02T14:34:53.630Z,12.17
2018-06-02T14:37:22.771Z,12.27
2018-06-02T14:39:51.170Z,12.97
2018-06-02T14:42:19.539Z,13.63
2018-06-02T14:44:47.997Z,14.23
2018-06-02T14:47:16.426Z,14.17
2018-06-02T14:49:45.542Z,12.93
2018-06-02T14:52:13.893Z,12.10
2018-06-02T14:54:42.375Z,11.20
2018-06-02T14:57:10.804Z,9.60
2018-06-02T14:59:39.152Z,9.47
2018-06-02T15:02:07.513Z,8.47
2018-06-02T15:04:35.832Z,7.23
2018-06-02T15:07:04.460Z,5.97
2018-06-02T15:09:32.823Z,6.10
2018-06-02T15:12:01.193Z,6.07
2018-06-02T15:14:29.585Z,5.13
2018-06-02T15:16:57.935Z,4.87
2018-06-02T15:19:26.296Z,5.43
2018-06-02T15:21:54.714Z,4.77
2018-06-02T15:24:23.157Z,5.47
2018-06-02T15:26:51.498Z,6.63
2018-06-02T15:29:19.902Z,6.20
2018-06-02T15:31:49.047Z,5.80
2018-06-02T15:34:17.393Z,6.00
2018-06-02T15:36:45.809Z,7.00
2018-06-02T15:39:14.197Z,7.47
2018-06-02T15:41:43.313Z,8.23
2018-06-02T15:44:11.766Z,9.50
2018-06-02T15:46:40.108Z,7.77
2018-06-02T15:49:08.447Z,8.00
2018-06-02T15:51:36.861Z,8.10
2018-06-02T15:54:05.243Z,8.80
2018-06-02T15:56:33.574Z,9.57
2018-06-02T15:59:02.001Z,9.30
2018-06-02T16:01:30.377Z,9.63
2018-06-02T16:03:58.792Z,10.73
2018-06-02T16:06:27.266Z,8.87
2018-06-02T16:08:55.637Z,10.20
2018-06-02T16:11:23.985Z,10.83
2018-06-02T16:13:53.186Z,10.57
2018-06-02T16:16:21.561Z,9.80
2018-06-02T16:18:50.755Z,12.30
2018-06-02T16:21:19.196Z,11.33
2018-06-02T16:23:48.333Z,10.20
2018-06-02T16:26:16.768Z,11.43
2018-06-02T16:28:45.175Z,11.93
2018-06-02T16:31:14.259Z,12.40
2018-06-02T16:33:43.424Z,12.80
2018-06-02T16:36:11.853Z,12.63
2018-06-02T16:38:40.980Z,12.07
2018-06-02T16:41:09.329Z,11.60
2018-06-02T16:43:37.721Z,11.43
2018-06-02T16:46:06.946Z,10.73
2018-06-02T16:48:35.338Z,11.90
2018-06-02T16:51:04.540Z,11.77
2018-06-02T16:53:32.898Z,10.70
2018-06-02T16:56:02.240Z,10.87
2018-06-02T16:58:31.501Z,10.63
2018-06-02T17:01:00.588Z,8.47
2018-06-02T17:03:28.937Z,7.97
2018-06-02T17:05:57.692Z,8.23
2018-06-02T17:08:26.047Z,9.50
2018-06-02T17:10:54.421Z,9.93
2018-06-02T17:13:22.819Z,10.30
2018-06-02T17:15:51.344Z,9.80
2018-06-02T17:18:20.431Z,8.90
2018-06-02T17:20:49.657Z,8.57
2018-06-02T17:23:18.005Z,9.00
2018-06-02T17:25:47.129Z,8.40
2018-06-02T17:28:15.536Z,8.00
2018-06-02T17:30:44.547Z,8.40
2018-06-02T17:33:12.918Z,7.67
2018-06-02T17:35:41.440Z,7.70
2018-06-02T17:38:10.568Z,8.30
2018-06-02T17:40:38.979Z,8.27
2018-06-02T17:43:07.441Z,7.47
2018-06-02T17:45:35.805Z,8.90
2018-06-02T17:48:04.241Z,7.17
2018-06-02T17:50:33.485Z,8.67
2018-06-02T17:53:01.898Z,8.50
2018-06-02T17:55:30.312Z,7.97
2018-06-02T17:57:58.832Z,7.80
2018-06-02T18:00:27.177Z,8.30
2018-06-02T18:02:55.577Z,8.57
2018-06-02T18:05:23.996Z,8.87
2018-06-02T18:07:52.358Z,8.80
2018-06-02T18:10:20.786Z,9.43
2018-06-02T18:12:49.245Z,9.40
2018-06-02T18:15:18.403Z,9.60
2018-06-02T18:17:46.958Z,9.13
2018-06-02T18:20:15.373Z,8.53
2018-06-02T18:22:43.741Z,8.63
2018-06-02T18:25:12.204Z,9.23
2018-06-02T18:27:40.685Z,7.83
2018-06-02T18:30:09.039Z,9.00
2018-06-02T18:32:37.418Z,8.60
2018-06-02T18:35:05.822Z,8.60
2018-06-02T18:37:34.186Z,8.47
2018-06-02T18:40:02.609Z,8.70
2018-06-02T18:42:31.032Z,8.73
2018-06-02T18:45:00.150Z,8.97
2018-06-02T18:47:28.521Z,9.73
2018-06-02T18:49:57.080Z,10.13
2018-06-02T18:52:26.233Z,9.70
2018-06-02T18:54:54.722Z,8.83
2018-06-02T18:57:23.180Z,9.50
2018-06-02T18:59:51.530Z,8.70
2018-06-02T19:02:19.902Z,9.83
2018-06-02T19:04:48.393Z,11.37
2018-06-02T19:07:16.793Z,10.17
2018-06-02T19:09:45.183Z,10.70
2018-06-02T19:12:13.605Z,10.07
2018-06-02T19:14:42.780Z,10.60
2018-06-02T19:17:11.170Z,10.50
2018-06-02T19:19:39.604Z,11.43
2018-06-02T19:22:07.973Z,10.77
2018-06-02T19:24:36.328Z,10.27
2018-06-02T19:27:05.513Z,11.70
2018-06-02T19:29:35.569Z,11.90
2018-06-02T19:32:03.927Z,12.93
2018-06-02T19:34:33.159Z,12.37
2018-06-02T19:37:01.572Z,12.17
2018-06-02T19:39:29.949Z,12.67
2018-06-02T19:41:58.368Z,11.43
2018-06-02T19:44:27.597Z,11.83
2018-06-02T19:47:28.335Z,14.03
2018-06-02T19:49:57.596Z,13.30
2018-06-02T19:52:27.153Z,12.63
2018-06-02T19:54:56.557Z,12.40
2018-06-02T19:57:25.983Z,12.07
2018-06-02T19:59:55.261Z,11.47
2018-06-02T20:02:24.645Z,11.83
2018-06-02T20:04:53.984Z,11.17
2018-06-02T20:07:23.283Z,11.43
2018-06-02T20:09:52.632Z,12.23
2018-06-02T20:12:21.969Z,14.00
2018-06-02T20:14:51.318Z,12.63
2018-06-02T20:17:20.693Z,12.50
2018-06-02T20:19:50.103Z,12.47
2018-06-02T20:22:19.403Z,12.47
2018-06-02T20:24:48.725Z,13.30
2018-06-02T20:27:18.037Z,16.13
2018-06-02T20:29:47.331Z,16.77
2018-06-02T20:32:16.633Z,14.53
2018-06-02T20:34:45.899Z,14.73
2018-06-02T20:37:15.226Z,15.10
2018-06-02T20:39:44.522Z,14.67
2018-06-02T20:42:13.954Z,13.20
2018-06-02T20:44:43.362Z,14.07
2018-06-02T20:47:13.280Z,12.30
2018-06-02T20:49:42.687Z,11.60
2018-06-02T20:52:11.655Z,11.90
2018-06-02T20:54:40.898Z,10.50
2018-06-02T20:57:10.240Z,10.13
2018-06-02T20:59:39.542Z,10.53
2018-06-02T21:02:08.827Z,9.57
2018-06-02T21:04:38.148Z,10.23
2018-06-02T21:07:07.410Z,9.93
2018-06-02T21:09:36.846Z,10.60
2018-06-02T21:12:06.285Z,11.40
2018-06-02T21:14:35.781Z,9.97
2018-06-02T21:17:05.117Z,11.53
2018-06-02T21:19:34.467Z,11.87
2018-06-02T21:22:03.822Z,14.40
2018-06-02T21:24:33.253Z,13.50
2018-06-02T21:27:02.604Z,12.83
2018-06-02T21:29:31.663Z,11.83
2018-06-02T21:32:00.821Z,11.40
2018-06-02T21:34:30.185Z,12.17
2018-06-02T21:36:59.508Z,12.20
2018-06-02T21:39:28.871Z,10.87
2018-06-02T21:41:58.317Z,10.17
2018-06-02T21:44:27.289Z,10.23
2018-06-02T21:46:56.454Z,9.60
2018-06-02T21:49:25.764Z,9.63
2018-06-02T21:51:55.061Z,10.13
2018-06-02T21:54:24.461Z,10.37
2018-06-02T21:56:53.802Z,11.00
2018-06-02T21:59:22.895Z,11.13
2018-06-02T22:01:52.221Z,12.40
2018-06-02T22:04:21.518Z,14.80
2018-06-02T22:06:51.029Z,13.87
2018-06-02T22:09:20.458Z,13.97
2018-06-02T22:11:49.722Z,13.67
2018-06-02T22:14:19.265Z,11.90
2018-06-02T22:16:48.873Z,12.20
2018-06-02T22:19:18.226Z,12.87
2018-06-02T22:21:47.555Z,13.67
2018-06-02T22:24:17.008Z,13.03
2018-06-02T22:26:46.305Z,15.13
2018-06-02T22:29:15.711Z,14.03
2018-06-02T22:31:45.233Z,14.60
2018-06-02T22:34:14.663Z,14.37
2018-06-02T22:36:43.772Z,16.37
2018-06-02T22:39:12.831Z,17.00
2018-06-02T22:41:42.017Z,16.10
2018-06-02T22:44:11.348Z,14.87
2018-06-02T22:46:40.833Z,13.03
2018-06-02T22:49:10.154Z,13.63
2018-06-02T22:51:44.968Z,12.80
2018-06-02T22:54:14.213Z,12.53
2018-06-02T22:56:43.730Z,11.77
2018-06-02T22:59:13.138Z,12.40
2018-06-02T23:01:42.643Z,12.30
2018-06-02T23:04:11.788Z,12.63
2018-06-02T23:06:41.138Z,12.30
2018-06-02T23:09:10.298Z,11.97
2018-06-02T23:11:39.395Z,12.70
2018-06-02T23:14:08.545Z,13.50
2018-06-02T23:16:37.631Z,11.60
2018-06-02T23:19:06.702Z,11.57
2018-06-02T23:21:35.815Z,14.03
2018-06-02T23:24:04.892Z,12.33
2018-06-02T23:26:34.008Z,13.57
2018-06-02T23:29:03.091Z,11.60
2018-06-02T23:31:31.936Z,13.30
2018-06-02T23:34:00.973Z,14.37
2018-06-02T23:36:29.772Z,11.23
2018-06-02T23:38:58.775Z,12.57
2018-06-02T23:41:27.644Z,12.13
2018-06-02T23:43:56.691Z,12.47
2018-06-02T23:46:25.808Z,12.10
2018-06-02T23:48:55.006Z,11.73
2018-06-02T23:51:24.169Z,11.33
2018-06-02T23:53:53.365Z,11.00
2018-06-02T23:56:22.597Z,11.60
2018-06-02T23:58:51.715Z,11.10
